Terminal Aerodrome Forecast
Issued by NWS

Home | Current Version | Previous Version | Text Only | Print | Product List | Glossary Off
Versions: 1 2 3 4 5 6 7 8 9 10 11 12 13 14 15 16 17 18 19 20

000
FTUS43 KGRB 221012 AAA
TAFATW
TAF AMD
KATW 221012Z 2210/2306 32008KT P6SM BKN035
     FM221300 29006KT P6SM SKC
     FM221700 24008KT P6SM BKN200
     FM222300 21008KT P6SM BKN100
     FM230500 21009KT 6SM -SN BKN035 OVC070=

USA.gov is the U.S. government's official web portal to all federal, state and local government web resources and services.